La Villita, New Mexico
Current Conditions -  °F | °C
As of 2:15 PM on Sunday 23 Nov 2014 (Local Time) from KLAM Reporting Station
Clear Clear  
Wind Chill: 27°   Ceiling: Unl
Heat Index: 36°   Visibility: 10mi
Dew Point: 13°   Wind: 15mph
Humidity: 38%   Direction: 280°W
Pressure: 29.79"   Gusts: 30mph
Location:  36.1112°N, 106.046°W
Report Text: KLAM 232115Z AUTO 28013G26KT 220V310 10SM CLR 02/M11 A2979 RMK AO2 T00241107
Loading
Personal Weather Stations






























Interactive Weather Map New forecast layout! Learn more

10-Day Weather Forecast

Advertisements
Track Severe Weather on mobile